sensor_id;sensor_type;location;lat;lon;timestamp;P1;durP1;ratioP1;P2;durP2;ratioP2
39698;SDS011;25372;50.582;12.250;2023-09-19T00:06:04;0.50;;;0.50;;
39698;SDS011;25372;50.582;12.250;2023-09-19T00:16:26;0.70;;;0.70;;
39698;SDS011;25372;50.582;12.250;2023-09-19T00:26:48;0.75;;;0.73;;
39698;SDS011;25372;50.582;12.250;2023-09-19T00:37:09;1.17;;;0.95;;
39698;SDS011;25372;50.582;12.250;2023-09-19T00:47:33;1.38;;;0.50;;
39698;SDS011;25372;50.582;12.250;2023-09-19T00:57:55;2.00;;;1.08;;
39698;SDS011;25372;50.582;12.250;2023-09-19T01:08:18;1.63;;;0.98;;
39698;SDS011;25372;50.582;12.250;2023-09-19T01:18:40;1.20;;;1.08;;
39698;SDS011;25372;50.582;12.250;2023-09-19T01:29:16;0.70;;;0.70;;
39698;SDS011;25372;50.582;12.250;2023-09-19T01:39:55;1.35;;;0.82;;
39698;SDS011;25372;50.582;12.250;2023-09-19T01:50:29;1.55;;;1.10;;
39698;SDS011;25372;50.582;12.250;2023-09-19T02:00:57;2.13;;;1.05;;
39698;SDS011;25372;50.582;12.250;2023-09-19T02:11:20;0.97;;;0.90;;
39698;SDS011;25372;50.582;12.250;2023-09-19T02:21:42;0.70;;;0.65;;
39698;SDS011;25372;50.582;12.250;2023-09-19T02:32:03;0.95;;;0.80;;
39698;SDS011;25372;50.582;12.250;2023-09-19T02:42:27;2.85;;;0.68;;
39698;SDS011;25372;50.582;12.250;2023-09-19T02:52:48;1.95;;;0.70;;
39698;SDS011;25372;50.582;12.250;2023-09-19T03:03:10;1.65;;;1.00;;
39698;SDS011;25372;50.582;12.250;2023-09-19T03:13:32;0.63;;;0.63;;
39698;SDS011;25372;50.582;12.250;2023-09-19T03:23:54;0.60;;;0.60;;
39698;SDS011;25372;50.582;12.250;2023-09-19T03:34:15;1.38;;;1.00;;
39698;SDS011;25372;50.582;12.250;2023-09-19T03:44:38;0.80;;;0.80;;
39698;SDS011;25372;50.582;12.250;2023-09-19T03:54:59;1.02;;;0.80;;
39698;SDS011;25372;50.582;12.250;2023-09-19T04:05:23;1.08;;;0.90;;
39698;SDS011;25372;50.582;12.250;2023-09-19T04:15:45;0.80;;;0.80;;
39698;SDS011;25372;50.582;12.250;2023-09-19T04:26:08;0.52;;;0.52;;
39698;SDS011;25372;50.582;12.250;2023-09-19T04:36:28;0.70;;;0.70;;
39698;SDS011;25372;50.582;12.250;2023-09-19T04:46:50;3.78;;;1.42;;
39698;SDS011;25372;50.582;12.250;2023-09-19T04:57:11;0.80;;;0.80;;
39698;SDS011;25372;50.582;12.250;2023-09-19T05:07:33;1.45;;;0.82;;
39698;SDS011;25372;50.582;12.250;2023-09-19T05:17:54;1.20;;;1.00;;
39698;SDS011;25372;50.582;12.250;2023-09-19T05:28:16;1.23;;;0.80;;
39698;SDS011;25372;50.582;12.250;2023-09-19T05:38:37;0.30;;;0.30;;
39698;SDS011;25372;50.582;12.250;2023-09-19T05:49:02;0.88;;;0.85;;
39698;SDS011;25372;50.582;12.250;2023-09-19T05:59:23;1.20;;;0.63;;
39698;SDS011;25372;50.582;12.250;2023-09-19T06:09:45;0.63;;;0.60;;
39698;SDS011;25372;50.582;12.250;2023-09-19T06:20:07;0.50;;;0.50;;
39698;SDS011;25372;50.582;12.250;2023-09-19T06:30:33;0.88;;;0.75;;
39698;SDS011;25372;50.582;12.250;2023-09-19T06:40:55;1.75;;;0.80;;
39698;SDS011;25372;50.582;12.250;2023-09-19T06:51:18;1.15;;;0.77;;
39698;SDS011;25372;50.582;12.250;2023-09-19T07:01:38;0.70;;;0.70;;
39698;SDS011;25372;50.582;12.250;2023-09-19T07:12:02;2.38;;;0.75;;
39698;SDS011;25372;50.582;12.250;2023-09-19T07:22:22;3.08;;;0.65;;
39698;SDS011;25372;50.582;12.250;2023-09-19T07:32:44;1.38;;;0.90;;
39698;SDS011;25372;50.582;12.250;2023-09-19T07:43:05;0.80;;;0.70;;
39698;SDS011;25372;50.582;12.250;2023-09-19T07:53:27;0.60;;;0.50;;
39698;SDS011;25372;50.582;12.250;2023-09-19T08:03:49;2.03;;;0.68;;
39698;SDS011;25372;50.582;12.250;2023-09-19T08:14:11;2.80;;;1.10;;
39698;SDS011;25372;50.582;12.250;2023-09-19T08:24:33;0.75;;;0.57;;
39698;SDS011;25372;50.582;12.250;2023-09-19T08:34:56;0.68;;;0.68;;
39698;SDS011;25372;50.582;12.250;2023-09-19T08:45:16;2.95;;;0.73;;
39698;SDS011;25372;50.582;12.250;2023-09-19T08:55:39;1.17;;;0.50;;
39698;SDS011;25372;50.582;12.250;2023-09-19T09:06:02;1.38;;;0.60;;
39698;SDS011;25372;50.582;12.250;2023-09-19T09:16:24;3.05;;;1.55;;
39698;SDS011;25372;50.582;12.250;2023-09-19T09:26:45;0.82;;;0.60;;
39698;SDS011;25372;50.582;12.250;2023-09-19T09:37:08;0.60;;;0.43;;
39698;SDS011;25372;50.582;12.250;2023-09-19T09:47:40;0.47;;;0.47;;
39698;SDS011;25372;50.582;12.250;2023-09-19T09:58:19;0.60;;;0.60;;
39698;SDS011;25372;50.582;12.250;2023-09-19T10:08:56;0.80;;;0.80;;
39698;SDS011;25372;50.582;12.250;2023-09-19T10:19:25;0.82;;;0.43;;
39698;SDS011;25372;50.582;12.250;2023-09-19T10:29:53;1.55;;;0.57;;
39698;SDS011;25372;50.582;12.250;2023-09-19T10:40:17;0.85;;;0.60;;
39698;SDS011;25372;50.582;12.250;2023-09-19T10:50:43;1.77;;;0.87;;
39698;SDS011;25372;50.582;12.250;2023-09-19T11:01:10;0.40;;;0.40;;
39698;SDS011;25372;50.582;12.250;2023-09-19T11:22:11;0.43;;;0.43;;
39698;SDS011;25372;50.582;12.250;2023-09-19T11:43:33;1.35;;;0.52;;
39698;SDS011;25372;50.582;12.250;2023-09-19T11:53:56;0.63;;;0.47;;
39698;SDS011;25372;50.582;12.250;2023-09-19T12:04:20;2.22;;;1.02;;
39698;SDS011;25372;50.582;12.250;2023-09-19T12:14:57;1.25;;;0.55;;
39698;SDS011;25372;50.582;12.250;2023-09-19T12:25:19;0.70;;;0.70;;
39698;SDS011;25372;50.582;12.250;2023-09-19T12:35:41;0.90;;;0.75;;
39698;SDS011;25372;50.582;12.250;2023-09-19T12:46:06;0.50;;;0.50;;
39698;SDS011;25372;50.582;12.250;2023-09-19T12:56:26;0.70;;;0.35;;
39698;SDS011;25372;50.582;12.250;2023-09-19T13:06:50;6.22;;;0.50;;
39698;SDS011;25372;50.582;12.250;2023-09-19T13:17:11;0.80;;;0.60;;
39698;SDS011;25372;50.582;12.250;2023-09-19T13:27:36;3.17;;;0.67;;
39698;SDS011;25372;50.582;12.250;2023-09-19T13:37:57;0.88;;;0.70;;
39698;SDS011;25372;50.582;12.250;2023-09-19T13:48:19;1.52;;;0.88;;
39698;SDS011;25372;50.582;12.250;2023-09-19T13:58:41;0.45;;;0.43;;
39698;SDS011;25372;50.582;12.250;2023-09-19T14:09:03;1.85;;;0.95;;
39698;SDS011;25372;50.582;12.250;2023-09-19T14:19:24;0.90;;;0.75;;
39698;SDS011;25372;50.582;12.250;2023-09-19T14:29:46;1.02;;;0.60;;
39698;SDS011;25372;50.582;12.250;2023-09-19T14:40:07;1.23;;;0.95;;
39698;SDS011;25372;50.582;12.250;2023-09-19T14:50:30;1.67;;;0.80;;
39698;SDS011;25372;50.582;12.250;2023-09-19T15:00:52;0.63;;;0.63;;
39698;SDS011;25372;50.582;12.250;2023-09-19T15:11:14;1.45;;;0.93;;
39698;SDS011;25372;50.582;12.250;2023-09-19T15:21:36;1.40;;;0.63;;
39698;SDS011;25372;50.582;12.250;2023-09-19T15:31:59;0.68;;;0.68;;
39698;SDS011;25372;50.582;12.250;2023-09-19T15:42:21;2.05;;;1.58;;
39698;SDS011;25372;50.582;12.250;2023-09-19T15:52:44;1.17;;;0.70;;
39698;SDS011;25372;50.582;12.250;2023-09-19T16:03:05;1.20;;;0.85;;
39698;SDS011;25372;50.582;12.250;2023-09-19T16:13:27;1.45;;;0.88;;
39698;SDS011;25372;50.582;12.250;2023-09-19T16:23:48;2.03;;;1.27;;
39698;SDS011;25372;50.582;12.250;2023-09-19T16:44:35;2.22;;;1.10;;
39698;SDS011;25372;50.582;12.250;2023-09-19T16:54:57;1.58;;;1.25;;
39698;SDS011;25372;50.582;12.250;2023-09-19T17:05:18;1.10;;;0.80;;
39698;SDS011;25372;50.582;12.250;2023-09-19T17:15:40;2.75;;;1.40;;
39698;SDS011;25372;50.582;12.250;2023-09-19T17:26:02;1.27;;;1.00;;
39698;SDS011;25372;50.582;12.250;2023-09-19T17:36:26;2.10;;;1.23;;
39698;SDS011;25372;50.582;12.250;2023-09-19T17:46:51;2.35;;;1.10;;
39698;SDS011;25372;50.582;12.250;2023-09-19T17:57:14;1.50;;;1.00;;
39698;SDS011;25372;50.582;12.250;2023-09-19T18:07:35;1.50;;;1.10;;
39698;SDS011;25372;50.582;12.250;2023-09-19T18:17:58;3.33;;;1.80;;
39698;SDS011;25372;50.582;12.250;2023-09-19T18:28:19;3.65;;;2.15;;
39698;SDS011;25372;50.582;12.250;2023-09-19T18:38:42;5.32;;;2.22;;
39698;SDS011;25372;50.582;12.250;2023-09-19T18:49:04;3.13;;;1.90;;
39698;SDS011;25372;50.582;12.250;2023-09-19T18:59:27;6.03;;;2.03;;
39698;SDS011;25372;50.582;12.250;2023-09-19T19:09:48;1.70;;;1.20;;
39698;SDS011;25372;50.582;12.250;2023-09-19T19:20:10;2.45;;;1.67;;
39698;SDS011;25372;50.582;12.250;2023-09-19T19:30:42;4.18;;;1.73;;
39698;SDS011;25372;50.582;12.250;2023-09-19T19:41:05;3.60;;;1.77;;
39698;SDS011;25372;50.582;12.250;2023-09-19T19:51:26;1.70;;;1.20;;
39698;SDS011;25372;50.582;12.250;2023-09-19T20:01:49;2.42;;;1.45;;
39698;SDS011;25372;50.582;12.250;2023-09-19T20:12:10;4.20;;;1.70;;
39698;SDS011;25372;50.582;12.250;2023-09-19T20:22:32;3.60;;;1.63;;
39698;SDS011;25372;50.582;12.250;2023-09-19T20:32:55;1.45;;;1.33;;
39698;SDS011;25372;50.582;12.250;2023-09-19T20:43:17;1.73;;;1.10;;
39698;SDS011;25372;50.582;12.250;2023-09-19T20:53:39;3.08;;;1.88;;
39698;SDS011;25372;50.582;12.250;2023-09-19T21:04:03;1.92;;;1.30;;
39698;SDS011;25372;50.582;12.250;2023-09-19T21:14:25;1.52;;;1.38;;
39698;SDS011;25372;50.582;12.250;2023-09-19T21:24:48;3.20;;;1.35;;
39698;SDS011;25372;50.582;12.250;2023-09-19T21:35:10;0.87;;;0.80;;
39698;SDS011;25372;50.582;12.250;2023-09-19T21:45:34;1.33;;;1.17;;
39698;SDS011;25372;50.582;12.250;2023-09-19T21:55:57;1.30;;;1.20;;
39698;SDS011;25372;50.582;12.250;2023-09-19T22:06:21;1.83;;;1.73;;
39698;SDS011;25372;50.582;12.250;2023-09-19T22:16:42;1.52;;;1.00;;
39698;SDS011;25372;50.582;12.250;2023-09-19T22:27:05;2.25;;;1.10;;
39698;SDS011;25372;50.582;12.250;2023-09-19T22:37:25;3.00;;;1.23;;
39698;SDS011;25372;50.582;12.250;2023-09-19T22:47:47;0.75;;;0.73;;
39698;SDS011;25372;50.582;12.250;2023-09-19T22:58:09;2.28;;;1.00;;
39698;SDS011;25372;50.582;12.250;2023-09-19T23:08:31;3.80;;;1.10;;
39698;SDS011;25372;50.582;12.250;2023-09-19T23:18:53;1.60;;;1.10;;
39698;SDS011;25372;50.582;12.250;2023-09-19T23:29:17;1.05;;;0.77;;
39698;SDS011;25372;50.582;12.250;2023-09-19T23:39:38;0.80;;;0.80;;
39698;SDS011;25372;50.582;12.250;2023-09-19T23:50:02;2.78;;;1.42;;
